createdAt,value
2023-04-16T00:01:07.732Z,100300.16
2023-04-16T00:03:40.385Z,100302.42
2023-04-16T00:06:13.458Z,100302.14
2023-04-16T00:08:45.498Z,100301.44
2023-04-16T00:11:17.581Z,100301.94
2023-04-16T00:13:49.619Z,100312.30
2023-04-16T00:16:21.781Z,100309.50
2023-04-16T00:18:53.682Z,100312.88
2023-04-16T00:21:26.359Z,100315.49
2023-04-16T00:23:56.845Z,100316.81
2023-04-16T00:26:29.163Z,100319.27
2023-04-16T00:29:01.894Z,100317.09
2023-04-16T00:31:34.974Z,100320.66
2023-04-16T00:34:08.632Z,100319.21
2023-04-16T00:36:41.092Z,100317.96
2023-04-16T00:39:12.989Z,100313.88
2023-04-16T00:41:45.429Z,100315.45
2023-04-16T00:44:17.295Z,100319.61
2023-04-16T00:46:49.852Z,100319.27
2023-04-16T00:49:22.573Z,100321.79
2023-04-16T00:51:54.889Z,100324.04
2023-04-16T00:54:27.556Z,100326.08
2023-04-16T00:57:01.553Z,100327.52
2023-04-16T00:59:33.508Z,100330.10
2023-04-16T01:02:05.853Z,100327.38
2023-04-16T01:04:38.418Z,100327.27
2023-04-16T01:07:10.291Z,100331.23
2023-04-16T01:09:44.158Z,100330.91
2023-04-16T01:12:16.134Z,100331.91
2023-04-16T01:14:48.323Z,100335.19
2023-04-16T01:17:20.612Z,100329.14
2023-04-16T01:19:52.638Z,100328.48
2023-04-16T01:22:25.017Z,100330.84
2023-04-16T01:24:56.985Z,100330.61
2023-04-16T01:27:29.264Z,100330.05
2023-04-16T01:30:01.508Z,100327.17
2023-04-16T01:32:43.355Z,100329.08
2023-04-16T01:35:15.379Z,100330.73
2023-04-16T01:37:47.449Z,100328.96
2023-04-16T01:40:19.901Z,100331.83
2023-04-16T01:42:52.553Z,100329.88
2023-04-16T01:45:24.973Z,100326.16
2023-04-16T01:47:57.018Z,100334.30
2023-04-16T01:50:30.866Z,100332.09
2023-04-16T01:53:05.014Z,100329.59
2023-04-16T01:55:37.312Z,100330.34
2023-04-16T01:58:11.005Z,100330.27
2023-04-16T02:00:43.237Z,100329.13
2023-04-16T02:03:15.559Z,100330.35
2023-04-16T02:05:47.891Z,100328.20
2023-04-16T02:08:20.433Z,100330.59
2023-04-16T02:10:55.164Z,100329.02
2023-04-16T02:13:28.361Z,100329.79
2023-04-16T02:16:00.291Z,100329.58
2023-04-16T02:18:52.785Z,100330.91
2023-04-16T02:21:26.038Z,100334.25
2023-04-16T02:23:58.271Z,100335.13
2023-04-16T02:26:33.205Z,100341.20
2023-04-16T02:29:09.716Z,100341.70
2023-04-16T02:31:47.910Z,100341.85
2023-04-16T02:34:20.284Z,100338.40
2023-04-16T02:36:54.233Z,100345.27
2023-04-16T02:39:26.468Z,100341.67
2023-04-16T02:41:59.357Z,100346.73
2023-04-16T02:44:31.945Z,100346.40
2023-04-16T02:47:03.835Z,100346.97
2023-04-16T02:49:35.810Z,100348.02
2023-04-16T02:52:08.200Z,100344.59
2023-04-16T02:54:40.325Z,100343.54
2023-04-16T02:57:12.380Z,100344.58
2023-04-16T02:59:44.238Z,100346.75
2023-04-16T03:02:16.601Z,100346.57
2023-04-16T03:04:47.283Z,100345.84
2023-04-16T03:07:19.411Z,100349.13
2023-04-16T03:09:51.865Z,100348.05
2023-04-16T03:12:23.814Z,100346.92
2023-04-16T03:14:55.991Z,100350.23
2023-04-16T03:17:28.438Z,100352.53
2023-04-16T03:20:00.965Z,100354.41
2023-04-16T03:22:32.951Z,100356.59
2023-04-16T03:25:05.678Z,100358.95
2023-04-16T03:27:38.616Z,100357.31
2023-04-16T03:30:12.087Z,100365.03
2023-04-16T03:32:45.103Z,100367.31
2023-04-16T03:35:17.358Z,100368.73
2023-04-16T03:37:50.427Z,100373.21
2023-04-16T03:40:22.912Z,100376.14
2023-04-16T03:42:53.858Z,100373.69
2023-04-16T03:45:26.356Z,100377.23
2023-04-16T03:47:58.333Z,100378.69
2023-04-16T03:50:30.997Z,100382.80
2023-04-16T03:53:02.994Z,100384.19
2023-04-16T03:55:35.930Z,100386.64
2023-04-16T03:58:07.994Z,100390.65
2023-04-16T04:00:42.376Z,100394.64
2023-04-16T04:03:18.605Z,100402.23
2023-04-16T04:05:52.521Z,100400.17
2023-04-16T04:08:30.816Z,100407.89
2023-04-16T04:11:02.797Z,100410.34
2023-04-16T04:13:35.719Z,100414.95
2023-04-16T04:16:10.344Z,100416.69
2023-04-16T04:18:44.344Z,100418.54
2023-04-16T04:21:16.748Z,100419.02
2023-04-16T04:23:48.914Z,100420.73
2023-04-16T04:26:21.057Z,100424.84
2023-04-16T04:28:52.933Z,100428.30
2023-04-16T04:31:25.147Z,100428.39
2023-04-16T04:33:57.053Z,100430.39
2023-04-16T04:36:29.243Z,100431.71
2023-04-16T04:39:01.139Z,100429.39
2023-04-16T04:41:34.034Z,100432.96
2023-04-16T04:44:06.407Z,100437.66
2023-04-16T04:46:38.464Z,100438.16
2023-04-16T04:49:11.628Z,100434.10
2023-04-16T04:51:43.755Z,100437.80
2023-04-16T04:54:15.763Z,100442.29
2023-04-16T04:56:48.151Z,100438.33
2023-04-16T04:59:21.269Z,100443.30
2023-04-16T05:01:53.942Z,100446.90
2023-04-16T05:04:25.869Z,100448.44
2023-04-16T05:06:57.549Z,100448.06
2023-04-16T05:09:29.424Z,100452.58
2023-04-16T05:12:01.934Z,100454.67
2023-04-16T05:14:33.712Z,100455.27
2023-04-16T05:17:05.573Z,100460.86
2023-04-16T05:19:38.012Z,100459.46
2023-04-16T05:22:09.734Z,100463.25
2023-04-16T05:24:41.503Z,100464.92
2023-04-16T05:27:13.390Z,100465.44
2023-04-16T05:29:45.636Z,100468.55
2023-04-16T05:32:16.438Z,100466.30
2023-04-16T05:34:48.621Z,100468.02
2023-04-16T05:37:20.734Z,100473.22
2023-04-16T05:39:52.535Z,100476.83
2023-04-16T05:42:24.367Z,100478.78
2023-04-16T05:44:56.634Z,100475.66
2023-04-16T05:47:28.819Z,100478.15
2023-04-16T05:50:00.652Z,100477.96
2023-04-16T05:52:32.568Z,100482.17
2023-04-16T05:55:05.194Z,100482.79
2023-04-16T05:57:37.084Z,100485.84
2023-04-16T06:00:10.907Z,100488.08
2023-04-16T06:02:46.248Z,100482.19
2023-04-16T06:05:18.373Z,100487.01
2023-04-16T06:07:50.218Z,100488.00
2023-04-16T06:10:22.598Z,100489.11
2023-04-16T06:12:54.895Z,100493.92
2023-04-16T06:15:27.668Z,100504.09
2023-04-16T06:18:00.202Z,100504.77
2023-04-16T06:20:33.186Z,100503.47
2023-04-16T06:23:05.177Z,100508.83
2023-04-16T06:25:37.163Z,100514.11
2023-04-16T06:28:09.561Z,100515.02
2023-04-16T06:30:44.417Z,100520.23
2023-04-16T06:33:17.195Z,100518.86
2023-04-16T06:35:49.083Z,100522.05
2023-04-16T06:38:21.228Z,100523.52
2023-04-16T06:40:53.185Z,100526.20
2023-04-16T06:43:27.291Z,100528.52
2023-04-16T06:46:00.453Z,100527.16
2023-04-16T06:48:32.480Z,100532.88
2023-04-16T06:51:04.635Z,100532.11
2023-04-16T06:53:37.936Z,100532.40
2023-04-16T06:56:10.915Z,100533.78
2023-04-16T06:58:43.035Z,100527.74
2023-04-16T07:01:15.088Z,100534.30
2023-04-16T07:03:47.915Z,100533.13
2023-04-16T07:06:20.478Z,100534.48
2023-04-16T07:08:52.815Z,100536.52
2023-04-16T07:11:25.933Z,100541.77
2023-04-16T07:13:58.912Z,100543.89
2023-04-16T07:16:30.918Z,100546.30
2023-04-16T07:19:04.660Z,100547.91
2023-04-16T07:21:35.718Z,100543.02
2023-04-16T07:24:08.693Z,100551.98
2023-04-16T07:26:41.017Z,100558.23
2023-04-16T07:29:13.498Z,100556.09
2023-04-16T07:31:45.845Z,100559.54
2023-04-16T07:34:17.740Z,100561.45
2023-04-16T07:36:49.874Z,100565.71
2023-04-16T07:39:22.125Z,100570.41
2023-04-16T07:41:54.657Z,100560.92
2023-04-16T07:44:27.137Z,100574.87
2023-04-16T07:46:59.332Z,100574.19
2023-04-16T07:49:31.668Z,100579.02
2023-04-16T07:52:03.612Z,100578.14
2023-04-16T07:54:35.924Z,100580.26
2023-04-16T07:57:07.922Z,100582.93
2023-04-16T07:59:40.832Z,100581.14
2023-04-16T08:02:18.266Z,100585.44
2023-04-16T08:04:50.494Z,100583.88
2023-04-16T08:07:23.152Z,100587.30
2023-04-16T08:09:55.687Z,100585.94
2023-04-16T08:12:28.477Z,100586.56
2023-04-16T08:15:01.392Z,100593.04
2023-04-16T08:17:34.546Z,100592.63
2023-04-16T08:20:09.494Z,100596.27
2023-04-16T08:22:42.312Z,100598.92
2023-04-16T08:25:15.152Z,100601.11
2023-04-16T08:27:45.431Z,100602.54
2023-04-16T08:30:18.350Z,100604.95
2023-04-16T08:32:51.276Z,100600.34
2023-04-16T08:35:23.413Z,100601.81
2023-04-16T08:37:55.927Z,100602.81
2023-04-16T08:40:30.025Z,100604.91
2023-04-16T08:43:03.854Z,100610.42
2023-04-16T08:45:37.451Z,100610.63
2023-04-16T08:48:12.525Z,100615.94
2023-04-16T08:50:45.711Z,100616.14
2023-04-16T08:53:24.796Z,100615.64
2023-04-16T08:56:00.868Z,100620.05
2023-04-16T08:58:35.721Z,100627.06
2023-04-16T09:01:10.445Z,100628.04
2023-04-16T09:03:46.080Z,100631.23
2023-04-16T09:06:18.554Z,100633.88
2023-04-16T09:08:51.191Z,100634.47
2023-04-16T09:11:26.903Z,100639.45
2023-04-16T09:14:01.068Z,100636.98
2023-04-16T09:16:36.466Z,100642.20
2023-04-16T09:19:08.946Z,100642.81
2023-04-16T09:21:41.231Z,100642.36
2023-04-16T09:24:13.410Z,100643.77
2023-04-16T09:26:46.156Z,100646.43
2023-04-16T09:29:37.173Z,100653.52
2023-04-16T09:32:11.332Z,100659.28
2023-04-16T09:35:00.622Z,100658.68
2023-04-16T09:37:33.396Z,100657.96
2023-04-16T09:40:04.896Z,100657.21
2023-04-16T09:42:38.571Z,100657.94
2023-04-16T09:45:14.745Z,100658.23
2023-04-16T09:47:47.480Z,100655.14
2023-04-16T09:50:18.913Z,100655.54
2023-04-16T09:52:52.851Z,100652.73
2023-04-16T09:55:33.762Z,100656.83
2023-04-16T09:58:06.672Z,100663.55
2023-04-16T10:00:38.819Z,100664.22
2023-04-16T10:03:17.579Z,100665.27
2023-04-16T10:05:49.948Z,100660.11
2023-04-16T10:08:25.230Z,100657.70
2023-04-16T10:10:59.037Z,100661.63
2023-04-16T10:13:31.888Z,100667.45
2023-04-16T10:16:04.547Z,100668.83
2023-04-16T10:18:39.618Z,100672.89
2023-04-16T10:21:12.965Z,100667.09
2023-04-16T10:23:46.905Z,100670.15
2023-04-16T10:26:21.264Z,100672.71
2023-04-16T10:28:54.200Z,100666.80
2023-04-16T10:31:27.609Z,100676.77
2023-04-16T10:34:06.144Z,100675.43
2023-04-16T10:36:41.126Z,100673.72
2023-04-16T10:39:17.202Z,100673.11
2023-04-16T10:41:50.071Z,100674.82
2023-04-16T10:44:26.123Z,100676.60
2023-04-16T10:46:58.164Z,100681.33
2023-04-16T10:49:30.637Z,100686.20
2023-04-16T10:52:03.746Z,100684.61
2023-04-16T10:54:38.034Z,100689.02
2023-04-16T10:57:12.454Z,100688.23
2023-04-16T10:59:46.198Z,100675.22
2023-04-16T11:02:19.997Z,100688.41
2023-04-16T11:04:52.446Z,100692.30
2023-04-16T11:07:36.207Z,100688.23
2023-04-16T11:10:14.557Z,100695.98
2023-04-16T11:12:51.319Z,100698.48
2023-04-16T11:15:31.202Z,100701.58
2023-04-16T11:18:07.314Z,100700.00
2023-04-16T11:20:45.433Z,100698.61
2023-04-16T11:23:20.393Z,100698.50
2023-04-16T11:26:00.454Z,100692.70
2023-04-16T11:28:39.565Z,100697.18
2023-04-16T11:31:15.101Z,100702.65
2023-04-16T11:33:51.396Z,100706.91
2023-04-16T11:38:28.867Z,100706.86
2023-04-16T11:39:18.848Z,100706.73
2023-04-16T11:41:52.777Z,100708.89
2023-04-16T11:44:27.357Z,100710.63
2023-04-16T11:46:59.516Z,100707.02
2023-04-16T11:49:32.788Z,100707.98
2023-04-16T11:52:04.844Z,100714.64
2023-04-16T11:54:37.920Z,100710.48
2023-04-16T11:57:10.229Z,100713.77
2023-04-16T12:00:02.228Z,100715.98
2023-04-16T12:02:46.530Z,100719.95
2023-04-16T12:05:32.219Z,100714.13
2023-04-16T12:08:06.958Z,100719.63
2023-04-16T12:10:54.891Z,100719.21
2023-04-16T12:13:27.222Z,100720.86
2023-04-16T12:15:59.705Z,100717.67
2023-04-16T12:18:30.302Z,100720.39
2023-04-16T12:21:05.726Z,100722.67
2023-04-16T12:23:37.709Z,100727.30
2023-04-16T12:26:12.199Z,100721.80
2023-04-16T12:28:44.104Z,100722.83
2023-04-16T12:34:04.533Z,100726.93
2023-04-16T12:36:36.409Z,100724.75
2023-04-16T12:39:09.073Z,100729.05
2023-04-16T12:41:40.492Z,100727.52
2023-04-16T12:44:13.992Z,100725.84
2023-04-16T12:46:46.505Z,100725.98
2023-04-16T12:49:19.099Z,100729.16
2023-04-16T12:51:51.662Z,100730.58
2023-04-16T12:54:24.096Z,100731.06
2023-04-16T12:56:55.934Z,100731.08
2023-04-16T12:59:28.685Z,100729.38
2023-04-16T13:02:01.913Z,100727.23
2023-04-16T13:04:34.884Z,100736.83
2023-04-16T13:07:08.164Z,100728.59
2023-04-16T13:09:40.959Z,100734.95
2023-04-16T13:12:11.474Z,100733.21
2023-04-16T13:14:46.769Z,100739.99
2023-04-16T13:17:18.693Z,100741.02
2023-04-16T13:19:50.824Z,100737.52
2023-04-16T13:22:22.774Z,100738.41
2023-04-16T13:24:55.447Z,100731.56
2023-04-16T13:27:25.981Z,100735.42
2023-04-16T13:29:58.248Z,100736.27
2023-04-16T13:32:30.785Z,100735.27
2023-04-16T13:35:02.710Z,100736.95
2023-04-16T13:37:35.584Z,100732.59
2023-04-16T13:40:09.698Z,100735.20
2023-04-16T13:42:42.315Z,100733.37
2023-04-16T13:45:14.622Z,100729.70
2023-04-16T13:47:48.266Z,100735.00
2023-04-16T13:50:19.214Z,100738.66
2023-04-16T13:52:51.254Z,100741.43
2023-04-16T13:55:23.451Z,100739.14
2023-04-16T13:57:56.329Z,100740.56
2023-04-16T14:00:29.427Z,100745.59
2023-04-16T14:03:02.901Z,100743.20
2023-04-16T14:05:35.262Z,100743.50
2023-04-16T14:08:07.313Z,100746.83
2023-04-16T14:10:39.449Z,100744.36
2023-04-16T14:13:13.248Z,100746.67
2023-04-16T14:15:45.490Z,100747.41
2023-04-16T14:18:17.479Z,100749.02
2023-04-16T14:20:49.756Z,100748.60
2023-04-16T14:23:21.904Z,100753.21
2023-04-16T14:25:56.838Z,100752.40
2023-04-16T14:28:27.719Z,100747.53
2023-04-16T14:31:00.028Z,100749.28
2023-04-16T14:33:32.931Z,100749.41
2023-04-16T14:36:05.877Z,100751.22
2023-04-16T14:38:38.804Z,100752.00
2023-04-16T14:41:12.657Z,100751.58
2023-04-16T14:43:44.914Z,100749.15
2023-04-16T14:46:18.751Z,100750.48
2023-04-16T14:48:51.490Z,100752.70
2023-04-16T14:51:23.498Z,100749.95
2023-04-16T14:53:55.530Z,100754.59
2023-04-16T14:56:28.101Z,100751.10
2023-04-16T14:59:00.434Z,100755.84
2023-04-16T15:01:34.582Z,100753.91
2023-04-16T15:04:06.745Z,100759.69
2023-04-16T15:06:38.452Z,100761.66
2023-04-16T15:09:10.547Z,100761.21
2023-04-16T15:11:42.681Z,100764.20
2023-04-16T15:14:14.849Z,100759.70
2023-04-16T15:16:49.578Z,100761.54
2023-04-16T15:19:21.668Z,100762.99
2023-04-16T15:21:54.407Z,100765.04
2023-04-16T15:24:27.152Z,100767.45
2023-04-16T15:26:59.448Z,100767.33
2023-04-16T15:29:32.252Z,100765.15
2023-04-16T15:32:02.461Z,100773.89
2023-04-16T15:34:34.692Z,100772.08
2023-04-16T15:37:06.701Z,100776.06
2023-04-16T15:39:38.746Z,100781.95
2023-04-16T15:42:13.039Z,100778.17
2023-04-16T15:44:45.356Z,100781.54
2023-04-16T15:47:17.191Z,100780.87
2023-04-16T15:49:49.432Z,100784.09
2023-04-16T15:52:21.953Z,100786.20
2023-04-16T15:54:52.814Z,100786.23
2023-04-16T15:57:24.825Z,100789.95
2023-04-16T16:00:06.564Z,100793.02
2023-04-16T16:02:39.821Z,100798.08
2023-04-16T16:05:14.484Z,100797.22
2023-04-16T16:07:47.108Z,100795.99
2023-04-16T16:10:20.595Z,100798.38
2023-04-16T16:12:52.786Z,100805.05
2023-04-16T16:15:24.890Z,100805.46
2023-04-16T16:17:58.296Z,100808.92
2023-04-16T16:20:30.746Z,100811.00
2023-04-16T16:23:03.518Z,100812.02
2023-04-16T16:25:35.912Z,100817.35
2023-04-16T16:28:08.311Z,100817.47
2023-04-16T16:30:40.722Z,100816.59
2023-04-16T16:33:12.494Z,100820.55
2023-04-16T16:35:44.369Z,100818.81
2023-04-16T16:38:16.934Z,100822.61
2023-04-16T16:40:48.834Z,100827.74
2023-04-16T16:43:21.433Z,100827.20
2023-04-16T16:45:53.427Z,100826.23
2023-04-16T16:48:37.760Z,100833.85
2023-04-16T16:51:34.877Z,100835.45
2023-04-16T16:54:13.045Z,100820.95
2023-04-16T16:56:45.244Z,100835.48
2023-04-16T16:59:17.556Z,100841.35
2023-04-16T17:01:49.563Z,100841.27
2023-04-16T17:04:24.435Z,100847.19
2023-04-16T17:06:57.192Z,100843.06
2023-04-16T17:09:27.911Z,100850.91
2023-04-16T17:11:59.835Z,100846.96
2023-04-16T17:14:31.813Z,100848.02
2023-04-16T17:17:04.424Z,100848.58
2023-04-16T17:19:36.769Z,100852.54
2023-04-16T17:22:08.985Z,100852.05
2023-04-16T17:24:41.274Z,100851.44
2023-04-16T17:27:13.542Z,100850.86
2023-04-16T17:29:45.614Z,100855.27
2023-04-16T17:32:17.680Z,100858.74
2023-04-16T17:34:53.348Z,100862.89
2023-04-16T17:37:37.338Z,100863.80
2023-04-16T17:40:12.883Z,100867.23
2023-04-16T17:42:45.576Z,100864.77
2023-04-16T17:45:19.055Z,100875.97
2023-04-16T17:47:51.427Z,100877.55
2023-04-16T17:50:24.074Z,100881.89
2023-04-16T17:52:54.973Z,100882.58
2023-04-16T17:55:26.962Z,100883.64
2023-04-16T17:58:00.564Z,100888.78
2023-04-16T18:00:32.552Z,100890.09
2023-04-16T18:03:04.865Z,100894.85
2023-04-16T18:05:36.802Z,100897.71
2023-04-16T18:08:09.254Z,100900.21
2023-04-16T18:10:42.478Z,100905.35
2023-04-16T18:13:14.445Z,100909.96
2023-04-16T18:15:51.361Z,100916.20
2023-04-16T18:18:24.107Z,100920.63
2023-04-16T18:20:56.416Z,100919.81
2023-04-16T18:23:28.754Z,100921.13
2023-04-16T18:26:00.886Z,100929.95
2023-04-16T18:28:33.431Z,100928.70
2023-04-16T18:31:07.846Z,100934.55
2023-04-16T18:33:55.768Z,100933.04
2023-04-16T18:36:31.215Z,100941.36
2023-04-16T18:39:03.331Z,100946.52
2023-04-16T18:41:36.639Z,100948.75
2023-04-16T18:44:10.771Z,100950.86
2023-04-16T18:46:42.808Z,100952.41
2023-04-16T18:49:15.852Z,100956.04
2023-04-16T18:51:48.685Z,100958.72
2023-04-16T18:54:21.164Z,100958.53
2023-04-16T18:56:53.316Z,100960.98
2023-04-16T18:59:26.310Z,100959.70
2023-04-16T19:01:57.495Z,100964.27
2023-04-16T19:04:41.154Z,100961.30
2023-04-16T19:07:13.630Z,100961.58
2023-04-16T19:09:45.830Z,100960.75
2023-04-16T19:12:18.081Z,100965.73
2023-04-16T19:14:50.058Z,100967.88
2023-04-16T19:17:22.205Z,100966.33
2023-04-16T19:19:54.698Z,100970.99
2023-04-16T19:22:27.299Z,100973.52
2023-04-16T19:25:02.207Z,100972.49
2023-04-16T19:27:38.941Z,100970.98
2023-04-16T19:30:15.019Z,100973.98
2023-04-16T19:32:55.185Z,100970.71
2023-04-16T19:35:30.433Z,100975.95
2023-04-16T19:38:03.450Z,100973.92
2023-04-16T19:40:35.792Z,100975.50
2023-04-16T19:43:08.846Z,100975.40
2023-04-16T19:45:47.410Z,100974.23
2023-04-16T19:48:19.606Z,100976.88
2023-04-16T19:50:52.280Z,100975.38
2023-04-16T19:53:31.453Z,100975.27
2023-04-16T19:56:04.090Z,100972.84
2023-04-16T19:58:36.015Z,100973.72
2023-04-16T20:01:28.351Z,100980.16
2023-04-16T20:04:00.862Z,100976.98
2023-04-16T20:06:33.607Z,100973.09
2023-04-16T20:09:06.365Z,100979.30
2023-04-16T20:11:36.783Z,100974.91
2023-04-16T20:14:09.011Z,100977.72
2023-04-16T20:16:41.208Z,100978.59
2023-04-16T20:19:18.555Z,100978.76
2023-04-16T20:21:50.790Z,100977.93
2023-04-16T20:24:23.931Z,100973.06
2023-04-16T20:26:56.737Z,100974.59
2023-04-16T20:29:29.712Z,100975.68
2023-04-16T20:32:04.116Z,100974.22
2023-04-16T20:34:38.215Z,100976.30
2023-04-16T20:37:10.476Z,100975.16
2023-04-16T20:39:45.280Z,100973.46
2023-04-16T20:42:21.974Z,100976.13
2023-04-16T20:44:57.176Z,100978.98
2023-04-16T20:47:29.733Z,100984.13
2023-04-16T20:50:01.811Z,100987.55
2023-04-16T20:52:34.549Z,100989.63
2023-04-16T20:55:09.159Z,100992.34
2023-04-16T20:57:41.215Z,100997.68
2023-04-16T21:00:16.689Z,100992.16
2023-04-16T21:02:49.397Z,100993.89
2023-04-16T21:05:21.815Z,100994.76
2023-04-16T21:07:55.778Z,100995.16
2023-04-16T21:10:28.126Z,100995.02
2023-04-16T21:13:00.138Z,100998.98
2023-04-16T21:15:34.789Z,100998.73
2023-04-16T21:18:07.164Z,101001.19
2023-04-16T21:20:40.090Z,100998.82
2023-04-16T21:23:12.083Z,100996.69
2023-04-16T21:25:48.792Z,100999.00
2023-04-16T21:28:21.207Z,100998.27
2023-04-16T21:30:55.044Z,100998.32
2023-04-16T21:33:27.061Z,101006.95
2023-04-16T21:35:58.970Z,100999.53
2023-04-16T21:38:31.083Z,101002.08
2023-04-16T21:41:03.664Z,100998.15
2023-04-16T21:43:36.017Z,100995.31
2023-04-16T21:46:08.211Z,100997.69
2023-04-16T21:48:40.041Z,100997.51
2023-04-16T21:51:11.938Z,100996.75
2023-04-16T21:53:44.261Z,101000.24
2023-04-16T21:56:16.041Z,101004.71
2023-04-16T21:58:47.835Z,101007.32
2023-04-16T22:01:19.867Z,101006.42
2023-04-16T22:03:52.390Z,101010.79
2023-04-16T22:06:23.081Z,101008.11
2023-04-16T22:08:54.769Z,101006.90
2023-04-16T22:11:29.335Z,101003.91
2023-04-16T22:14:01.054Z,101001.94
2023-04-16T22:16:33.495Z,100998.38
2023-04-16T22:19:05.502Z,100998.85
2023-04-16T22:21:37.620Z,101002.55
2023-04-16T22:24:10.285Z,101002.92
2023-04-16T22:26:41.986Z,101007.63
2023-04-16T22:29:13.867Z,101007.85
2023-04-16T22:31:45.955Z,101004.66
2023-04-16T22:34:18.332Z,101013.61
2023-04-16T22:36:50.088Z,101013.57
2023-04-16T22:39:22.677Z,101018.73
2023-04-16T22:41:54.535Z,101022.39
2023-04-16T22:44:26.475Z,101020.41
2023-04-16T22:46:58.249Z,101017.44
2023-04-16T22:49:33.071Z,101016.17
2023-04-16T22:52:05.073Z,101021.40
2023-04-16T22:54:36.902Z,101018.15
2023-04-16T22:57:08.609Z,101020.29
2023-04-16T22:59:40.654Z,101020.05
2023-04-16T23:02:12.349Z,101024.27
2023-04-16T23:04:44.201Z,101020.60
2023-04-16T23:07:16.494Z,101019.19
2023-04-16T23:09:48.355Z,101019.46
2023-04-16T23:12:20.060Z,101018.52
2023-04-16T23:14:53.098Z,101015.55
2023-04-16T23:17:24.859Z,101013.00
2023-04-16T23:19:56.728Z,101015.30
2023-04-16T23:22:28.520Z,101014.98
2023-04-16T23:25:00.303Z,101013.15
2023-04-16T23:27:32.519Z,101016.70
2023-04-16T23:30:05.302Z,101012.21
2023-04-16T23:32:37.178Z,101014.66
2023-04-16T23:35:10.954Z,101013.96
2023-04-16T23:37:43.198Z,101014.02
2023-04-16T23:40:15.290Z,101017.24
2023-04-16T23:42:47.076Z,101017.83
2023-04-16T23:45:19.159Z,101014.06
2023-04-16T23:47:51.650Z,101015.25
2023-04-16T23:50:23.482Z,101017.21
2023-04-16T23:52:55.403Z,101014.33
2023-04-16T23:55:27.441Z,101012.50
2023-04-16T23:57:59.192Z,101010.14
